Time;durP1;ratioP1;P1;durP2;ratioP2;P2;SDS_P1;SDS_P2;PMS_P1;PMS_P2;Temp;Humidity;BMP_temperature;BMP_pressure;BME280_temperature;BME280_humidity;BME280_pressure;Samples;Min_cycle;Max_cycle;Signal;HPM_P1;HPM_P2
2021/04/13 00:01:16;;;;;;;2.95;2.58;;;;;;;4.45;94.10;102031.13;4963131;28;20062;-71
2021/04/13 00:03:44;;;;;;;5.65;2.42;;;;;;;4.57;93.29;102030.75;4958897;28;20117;-71
2021/04/13 00:06:12;;;;;;;5.68;3.30;;;;;;;4.56;93.07;102038.00;4960700;28;20097;-71
2021/04/13 00:08:39;;;;;;;3.90;2.58;;;;;;;4.51;93.37;102038.00;4968828;28;20062;-71
2021/04/13 00:11:08;;;;;;;5.07;2.88;;;;;;;4.54;93.58;102031.34;4965985;28;20027;-72
2021/04/13 00:13:37;;;;;;;7.45;3.10;;;;;;;4.46;93.91;102029.25;4960796;28;20062;-71
2021/04/13 00:16:15;;;;;;;4.72;2.78;;;;;;;4.46;93.70;102029.25;4962076;28;20031;-71
2021/04/13 00:18:44;;;;;;;6.30;2.63;;;;;;;4.53;94.17;102027.88;4958665;28;20027;-71
2021/04/13 00:21:24;;;;;;;8.07;2.60;;;;;;;4.53;93.91;102035.06;4967137;28;20030;-70
2021/04/13 00:23:50;;;;;;;4.90;2.70;;;;;;;4.49;94.11;102031.38;4959850;28;20035;-70
2021/04/13 00:26:25;;;;;;;6.32;2.53;;;;;;;4.49;94.13;102029.50;4959867;28;20035;-71
2021/04/13 00:28:52;;;;;;;3.15;2.30;;;;;;;4.65;93.90;102042.69;4964636;28;20113;-71
2021/04/13 00:31:40;;;;;;;3.38;2.47;;;;;;;4.59;93.70;102045.41;4965559;28;20034;-71
2021/04/13 00:34:23;;;;;;;3.33;2.47;;;;;;;4.56;94.06;102039.84;4964025;28;20582;-70
2021/04/13 00:36:51;;;;;;;5.22;2.53;;;;;;;4.55;94.12;102038.25;4959078;28;20085;-72
2021/04/13 00:39:24;;;;;;;3.65;2.42;;;;;;;4.43;94.73;102040.50;4958840;28;20030;-70
2021/04/13 00:41:53;;;;;;;4.30;2.63;;;;;;;4.38;94.81;102028.00;4959116;28;20035;-71
2021/04/13 00:44:20;;;;;;;3.88;2.65;;;;;;;4.47;94.82;102028.97;4962464;28;20031;-71
2021/04/13 00:46:57;;;;;;;6.43;2.60;;;;;;;4.54;94.49;102028.66;4961554;28;20146;-71
2021/04/13 00:49:26;;;;;;;6.35;2.90;;;;;;;4.32;95.20;102023.78;4961391;28;20122;-70
2021/04/13 00:52:00;;;;;;;4.57;3.10;;;;;;;4.35;95.98;102033.09;4961074;28;20130;-71
2021/04/13 00:56:54;;;;;;;8.07;3.22;;;;;;;4.40;94.98;102030.38;5020474;28;20041;-75
2021/04/13 00:59:22;;;;;;;5.43;3.10;;;;;;;4.25;95.61;102028.63;5019392;28;20080;-74
2021/04/13 01:02:11;;;;;;;5.20;3.00;;;;;;;4.22;96.29;102023.84;5023602;28;20516;-75
2021/04/13 01:04:47;;;;;;;3.08;2.70;;;;;;;4.04;96.40;102029.06;5024700;28;20073;-74
2021/04/13 01:07:27;;;;;;;7.57;3.10;;;;;;;4.04;96.93;102023.72;5019445;28;20021;-75
2021/04/13 01:10:04;;;;;;;4.53;3.15;;;;;;;4.04;96.68;102024.53;5019841;28;20129;-74
2021/04/13 01:12:32;;;;;;;6.97;2.95;;;;;;;4.06;96.24;102033.03;5025659;28;20038;-74
2021/04/13 01:15:01;;;;;;;5.75;3.30;;;;;;;4.19;95.57;102028.94;5026981;28;20038;-74
2021/04/13 01:17:27;;;;;;;4.70;3.20;;;;;;;4.17;95.69;102031.09;5023996;28;20025;-74
2021/04/13 01:20:15;;;;;;;6.55;2.97;;;;;;;4.15;95.98;102027.91;5023841;28;20060;-74
2021/04/13 01:25:43;;;;;;;6.22;3.20;;;;;;;4.17;96.50;102025.75;5026104;28;20037;-74
2021/04/13 01:28:15;;;;;;;5.15;3.00;;;;;;;4.19;96.40;102026.28;5011533;28;20128;-75
2021/04/13 01:30:43;;;;;;;5.50;3.65;;;;;;;3.91;96.55;102024.34;5026784;28;20045;-74
2021/04/13 01:33:12;;;;;;;7.65;3.20;;;;;;;3.80;97.95;102022.78;5023082;28;20526;-74
2021/04/13 01:35:42;;;;;;;7.13;3.75;;;;;;;4.00;97.38;102030.69;5018802;28;20070;-75
2021/04/13 01:38:22;;;;;;;4.57;2.90;;;;;;;3.94;97.04;102021.13;5020155;28;20406;-74
2021/04/13 01:43:17;;;;;;;7.38;3.20;;;;;;;3.99;97.06;102040.53;5022297;28;20025;-74
2021/04/13 01:45:43;;;;;;;5.85;3.15;;;;;;;4.02;96.74;102032.00;5023146;28;20067;-75
2021/04/13 01:48:12;;;;;;;8.07;3.20;;;;;;;4.14;96.68;102037.00;5020527;28;20037;-74
2021/04/13 01:50:41;;;;;;;7.78;3.78;;;;;;;4.19;96.49;102035.06;5022617;28;20094;-74
2021/04/13 01:53:13;;;;;;;5.30;3.38;;;;;;;4.21;96.90;102038.25;5016676;28;20150;-74
2021/04/13 01:55:49;;;;;;;4.78;3.45;;;;;;;4.10;97.06;102036.75;5024064;28;20053;-74
2021/04/13 01:58:27;;;;;;;6.63;3.78;;;;;;;4.11;96.68;102033.00;5018122;28;20056;-74
2021/04/13 02:01:09;;;;;;;5.85;3.50;;;;;;;4.16;96.50;102024.97;5042349;28;20034;-74
2021/04/13 02:04:10;;;;;;;5.55;3.38;;;;;;;3.98;97.19;102028.28;5029200;28;20041;-74
2021/04/13 02:06:49;;;;;;;5.38;3.45;;;;;;;4.09;96.62;102023.69;4995568;28;20124;-75
2021/04/13 02:12:38;;;;;;;5.35;3.30;;;;;;;3.89;97.11;102032.59;5019007;28;20049;-75
2021/04/13 02:15:18;;;;;;;8.32;3.53;;;;;;;4.01;96.83;102026.94;5025949;28;20033;-75
2021/04/13 02:17:58;;;;;;;5.65;3.47;;;;;;;4.01;96.74;102030.41;5030078;28;20080;-75
2021/04/13 02:20:35;;;;;;;5.18;3.42;;;;;;;3.92;97.27;102026.72;5030914;28;20033;-75
2021/04/13 02:23:03;;;;;;;5.47;3.92;;;;;;;4.01;97.29;102022.41;5028853;28;20038;-75
2021/04/13 02:25:33;;;;;;;6.53;3.85;;;;;;;3.66;98.14;102026.06;5024720;28;20445;-75
2021/04/13 02:28:00;;;;;;;8.23;3.58;;;;;;;3.71;98.68;102019.13;5028152;28;20075;-74
2021/04/13 02:30:40;;;;;;;8.35;3.70;;;;;;;3.63;98.42;102020.50;5028795;28;20493;-75
2021/04/13 02:33:18;;;;;;;4.85;2.92;;;;;;;3.50;100.00;102016.56;5030967;28;20464;-74
2021/04/13 02:35:45;;;;;;;5.80;3.40;;;;;;;3.58;99.70;102017.88;5025350;28;20108;-74
2021/04/13 02:38:16;;;;;;;9.73;3.80;;;;;;;3.73;99.74;102022.31;5020804;28;20515;-74
2021/04/13 02:41:00;;;;;;;6.50;3.25;;;;;;;3.68;99.21;102015.13;5028660;28;20370;-75
2021/04/13 02:43:49;;;;;;;6.82;3.80;;;;;;;3.66;99.84;102031.41;5018544;28;20041;-74
2021/04/13 02:46:22;;;;;;;9.55;3.70;;;;;;;3.60;99.63;102027.16;5029769;28;20233;-75
2021/04/13 02:49:03;;;;;;;16.88;4.05;;;;;;;3.86;99.24;102027.03;5026643;28;20049;-74
2021/04/13 02:51:32;;;;;;;12.93;3.90;;;;;;;3.80;99.27;102033.44;5028620;28;20068;-75
2021/04/13 02:53:59;;;;;;;8.05;3.72;;;;;;;3.92;98.88;102031.25;5030669;28;20033;-75
2021/04/13 02:56:40;;;;;;;9.23;4.00;;;;;;;3.91;98.58;102029.69;5030582;28;20493;-75
2021/04/13 02:59:12;;;;;;;7.95;3.72;;;;;;;3.88;98.74;102032.88;5025624;28;20034;-75
2021/04/13 03:02:02;;;;;;;10.57;4.00;;;;;;;3.79;99.44;102034.53;5029389;28;20064;-75
2021/04/13 03:04:29;;;;;;;9.70;4.05;;;;;;;3.79;99.41;102045.19;5029456;28;20505;-75
2021/04/13 03:06:56;;;;;;;8.40;4.50;;;;;;;3.89;98.66;102026.50;5028669;28;20108;-74
2021/04/13 03:09:26;;;;;;;8.35;3.72;;;;;;;3.73;98.80;102030.31;5029712;28;20037;-74
2021/04/13 03:11:58;;;;;;;6.95;3.88;;;;;;;3.59;99.70;102036.25;5029396;28;20053;-75
2021/04/13 03:14:24;;;;;;;12.93;3.78;;;;;;;3.64;100.00;102032.72;5029087;28;20053;-75
2021/04/13 03:16:53;;;;;;;10.35;4.80;;;;;;;3.66;99.69;102027.94;5030262;28;20017;-75
2021/04/13 03:19:21;;;;;;;7.18;3.90;;;;;;;3.54;99.70;102022.94;5029039;28;20030;-75
2021/04/13 03:21:54;;;;;;;8.48;4.60;;;;;;;3.50;100.00;102037.84;5027299;28;20045;-75
2021/04/13 03:24:30;;;;;;;7.63;4.22;;;;;;;3.64;100.00;102038.06;5029917;28;20033;-75
2021/04/13 03:27:00;;;;;;;15.25;4.32;;;;;;;3.63;100.00;102042.63;5029899;28;20137;-75
2021/04/13 03:29:48;;;;;;;7.25;4.45;;;;;;;3.81;100.00;102035.06;5029655;28;20051;-75
2021/04/13 03:32:17;;;;;;;8.77;4.50;;;;;;;3.85;99.68;102038.78;5026025;28;20037;-75
2021/04/13 03:34:44;;;;;;;8.15;4.18;;;;;;;3.79;100.00;102037.19;5030050;28;20033;-75
2021/04/13 03:37:12;;;;;;;7.53;4.20;;;;;;;3.79;100.00;102026.53;5029154;28;20018;-75
2021/04/13 03:39:41;;;;;;;6.85;3.80;;;;;;;3.80;99.52;102031.59;5028841;28;20084;-74
2021/04/13 03:42:13;;;;;;;7.63;3.78;;;;;;;3.66;99.85;102030.59;5027641;28;20091;-75
2021/04/13 03:44:39;;;;;;;6.53;3.90;;;;;;;3.59;100.00;102025.59;5039565;28;20057;-75
2021/04/13 03:47:13;;;;;;;6.47;3.55;;;;;;;3.59;100.00;102033.56;5030528;28;20049;-74
2021/04/13 03:49:41;;;;;;;9.48;3.70;;;;;;;3.51;100.00;102038.66;5033182;28;20037;-75
2021/04/13 03:52:06;;;;;;;10.15;3.88;;;;;;;3.65;100.00;102043.13;5033544;28;20057;-75
2021/04/13 03:54:36;;;;;;;9.60;4.22;;;;;;;3.63;100.00;102049.78;5033272;28;20155;-75
2021/04/13 03:57:03;;;;;;;8.85;3.97;;;;;;;3.73;100.00;102054.28;5012509;28;20037;-75
2021/04/13 03:59:32;;;;;;;8.43;3.90;;;;;;;3.85;100.00;102046.75;5025310;28;20108;-74
2021/04/13 04:01:57;;;;;;;8.55;3.67;;;;;;;3.94;100.00;102043.25;5031190;28;20029;-75
2021/04/13 04:04:31;;;;;;;9.32;4.07;;;;;;;3.74;100.00;102045.19;5032928;28;20044;-75
2021/04/13 04:07:26;;;;;;;10.65;3.92;;;;;;;3.78;100.00;102046.25;5033221;28;20029;-74
2021/04/13 04:09:52;;;;;;;12.45;3.92;;;;;;;3.87;100.00;102057.94;5030778;28;20056;-75
2021/04/13 04:12:20;;;;;;;7.30;3.63;;;;;;;3.84;100.00;102047.81;5032689;28;20045;-74
2021/04/13 04:15:02;;;;;;;8.88;3.80;;;;;;;3.88;100.00;102057.66;5031319;28;20033;-75
2021/04/13 04:17:30;;;;;;;8.48;3.40;;;;;;;4.05;100.00;102054.63;5032619;28;20033;-74
2021/04/13 04:20:03;;;;;;;8.02;3.95;;;;;;;4.07;100.00;102063.94;5013559;28;20025;-75
2021/04/13 04:22:29;;;;;;;7.05;3.42;;;;;;;3.96;100.00;102061.59;5032478;28;20064;-74
2021/04/13 04:25:12;;;;;;;8.95;3.83;;;;;;;3.97;100.00;102065.88;5023246;28;20033;-75
2021/04/13 04:27:38;;;;;;;7.13;3.95;;;;;;;4.12;100.00;102071.13;5023559;28;20107;-75
2021/04/13 04:30:27;;;;;;;11.50;3.80;;;;;;;4.10;100.00;102068.72;5031075;28;20099;-74
2021/04/13 04:32:55;;;;;;;8.57;4.35;;;;;;;4.05;100.00;102066.09;5025972;28;20446;-75
2021/04/13 04:35:40;;;;;;;11.93;4.40;;;;;;;4.01;100.00;102066.91;5025323;28;20171;-75
2021/04/13 04:38:08;;;;;;;9.27;4.38;;;;;;;3.96;100.00;102062.41;5027887;28;20540;-75
2021/04/13 04:40:50;;;;;;;11.13;4.38;;;;;;;3.99;100.00;102077.06;5027062;28;20148;-76
2021/04/13 04:43:18;;;;;;;8.98;3.85;;;;;;;4.17;99.28;102079.06;5032023;28;20034;-76
2021/04/13 04:45:43;;;;;;;6.82;3.90;;;;;;;4.12;99.52;102077.22;5025423;28;20084;-75
2021/04/13 04:48:21;;;;;;;10.93;4.03;;;;;;;4.05;100.00;102081.25;5019325;28;20041;-75
2021/04/13 04:50:47;;;;;;;6.57;4.13;;;;;;;3.94;100.00;102090.41;5031564;28;20152;-75
2021/04/13 04:53:14;;;;;;;9.18;4.47;;;;;;;4.01;100.00;102090.88;5030166;28;20040;-75
2021/04/13 04:55:39;;;;;;;11.93;4.32;;;;;;;4.12;100.00;102095.88;5023694;28;20030;-75
2021/04/13 04:58:05;;;;;;;10.55;4.43;;;;;;;4.01;100.00;102096.22;5021435;28;20439;-76
2021/04/13 05:00:30;;;;;;;10.75;4.20;;;;;;;4.05;100.00;102094.59;5028233;28;20044;-74
2021/04/13 05:02:56;;;;;;;9.25;3.88;;;;;;;4.13;100.00;102108.16;5029450;28;20437;-75
2021/04/13 05:05:21;;;;;;;9.65;4.30;;;;;;;4.26;100.00;102112.84;5030301;28;20040;-75
2021/04/13 05:07:47;;;;;;;10.95;4.18;;;;;;;4.25;100.00;102105.13;5029048;28;20029;-74
2021/04/13 05:10:13;;;;;;;7.13;4.18;;;;;;;4.06;100.00;102102.34;5019192;28;20069;-75
2021/04/13 05:12:39;;;;;;;9.13;4.13;;;;;;;4.24;100.00;102101.66;5017811;28;20030;-74
2021/04/13 05:15:05;;;;;;;9.15;4.38;;;;;;;4.32;100.00;102100.28;5018035;28;20034;-75
2021/04/13 05:17:30;;;;;;;9.52;4.20;;;;;;;4.30;100.00;102113.09;5030534;28;20112;-75
2021/04/13 05:19:56;;;;;;;6.63;3.90;;;;;;;4.40;99.95;102102.38;5018417;28;20128;-73
2021/04/13 05:22:21;;;;;;;6.65;3.78;;;;;;;4.42;100.00;102113.56;5020820;28;20068;-75
2021/04/13 05:24:47;;;;;;;5.22;3.67;;;;;;;4.41;99.70;102117.31;5026777;28;20472;-75
2021/04/13 05:27:12;;;;;;;10.68;3.80;;;;;;;4.46;100.00;102119.94;5026925;28;20065;-75
2021/04/13 05:29:37;;;;;;;6.93;3.50;;;;;;;4.58;99.74;102125.72;5029773;28;20054;-75
2021/04/13 05:32:03;;;;;;;9.77;3.78;;;;;;;4.68;99.96;102132.84;5028691;28;20035;-75
2021/04/13 05:34:29;;;;;;;10.98;3.40;;;;;;;4.67;99.91;102131.25;5023354;28;20033;-74
2021/04/13 05:36:55;;;;;;;6.35;3.08;;;;;;;4.75;99.88;102139.47;5030987;28;20454;-74
2021/04/13 05:39:21;;;;;;;8.05;3.50;;;;;;;4.89;99.17;102137.75;5029334;28;20476;-74
2021/04/13 05:41:49;;;;;;;7.28;3.28;;;;;;;4.83;99.33;102136.19;5027787;28;20037;-75
2021/04/13 05:44:15;;;;;;;10.60;3.35;;;;;;;4.81;99.25;102142.88;5030361;28;20445;-74
2021/04/13 05:46:42;;;;;;;11.63;4.03;;;;;;;4.64;99.85;102137.94;5028677;28;20393;-72
2021/04/13 05:49:07;;;;;;;10.70;3.58;;;;;;;4.85;100.00;102144.72;5023674;28;20034;-75
2021/04/13 05:51:33;;;;;;;9.27;3.40;;;;;;;4.97;99.40;102145.16;5023842;28;20036;-75
2021/04/13 05:53:58;;;;;;;7.22;3.47;;;;;;;4.95;99.57;102143.84;5030322;28;20043;-75
2021/04/13 05:56:30;;;;;;;12.73;3.53;;;;;;;5.15;99.74;102141.78;5015075;28;20029;-73
2021/04/13 05:58:56;;;;;;;6.57;3.45;;;;;;;5.24;99.17;102137.44;5017744;28;20034;-75
2021/04/13 06:01:25;;;;;;;6.18;3.72;;;;;;;5.29;99.52;102147.25;5019225;28;20030;-72
2021/04/13 06:03:51;;;;;;;7.82;3.83;;;;;;;5.39;99.17;102142.63;5024228;28;20060;-72
2021/04/13 06:06:17;;;;;;;7.93;3.78;;;;;;;5.34;99.09;102137.31;5028622;28;20065;-74
2021/04/13 06:08:42;;;;;;;10.82;4.10;;;;;;;5.49;99.27;102153.22;5027492;28;20029;-74
2021/04/13 06:11:12;;;;;;;12.20;4.40;;;;;;;5.30;98.23;102146.97;5022395;28;20044;-74
2021/04/13 06:13:38;;;;;;;8.60;4.45;;;;;;;5.40;98.73;102146.88;5026638;28;20053;-74
2021/04/13 06:16:06;;;;;;;10.15;4.05;;;;;;;5.51;98.20;102147.56;5018654;28;20033;-74
2021/04/13 06:18:31;;;;;;;11.98;4.68;;;;;;;5.66;98.30;102165.31;5021301;28;20041;-74
2021/04/13 06:20:57;;;;;;;12.13;4.90;;;;;;;5.58;98.40;102160.56;5026831;28;20041;-74
2021/04/13 06:23:22;;;;;;;12.90;4.03;;;;;;;5.63;98.57;102171.22;5027525;28;20044;-75
2021/04/13 06:25:48;;;;;;;8.27;4.10;;;;;;;5.49;97.79;102171.09;5025767;28;20497;-74
2021/04/13 06:28:13;;;;;;;12.05;3.25;;;;;;;5.63;97.46;102166.69;5022743;28;20494;-75
2021/04/13 06:30:41;;;;;;;12.95;3.72;;;;;;;5.96;97.57;102175.69;5022619;28;20101;-74
2021/04/13 06:33:07;;;;;;;12.55;3.55;;;;;;;6.11;97.47;102178.16;5012676;28;20026;-75
2021/04/13 06:35:32;;;;;;;8.13;3.20;;;;;;;6.16;96.27;102192.28;5016120;28;20029;-72
2021/04/13 06:38:04;;;;;;;9.02;3.50;;;;;;;6.17;95.69;102191.19;5022006;28;20052;-72
2021/04/13 06:40:47;;;;;;;8.38;3.47;;;;;;;6.08;95.85;102184.88;5023775;28;20450;-74
2021/04/13 06:43:43;;;;;;;10.63;2.95;;;;;;;6.04;96.11;102183.84;5022013;28;20044;-73
2021/04/13 06:46:39;;;;;;;11.32;3.80;;;;;;;6.09;96.01;102196.38;5009314;28;20025;-75
2021/04/13 06:49:39;;;;;;;10.75;3.38;;;;;;;6.19;96.63;102185.56;5011446;28;20041;-76
2021/04/13 06:52:23;;;;;;;9.38;3.28;;;;;;;6.38;96.52;102202.44;4958274;28;20523;-74
2021/04/13 06:55:20;;;;;;;8.90;3.20;;;;;;;6.61;96.22;102193.53;4966940;28;20483;-73
2021/04/13 06:58:11;;;;;;;6.53;3.15;;;;;;;6.72;95.46;102204.88;4958745;28;20129;-75
2021/04/13 07:00:55;;;;;;;8.57;3.35;;;;;;;6.79;96.19;102195.41;4955572;28;20042;-74
2021/04/13 07:03:45;;;;;;;12.68;3.70;;;;;;;6.95;95.57;102207.47;4943494;28;20146;-74
2021/04/13 07:06:23;;;;;;;16.45;3.63;;;;;;;7.06;94.91;102211.59;4947277;28;20065;-75
2021/04/13 07:09:02;;;;;;;8.85;3.42;;;;;;;7.34;94.71;102207.09;4965937;28;20042;-74
2021/04/13 07:11:44;;;;;;;8.40;3.63;;;;;;;7.51;94.26;102209.22;4965886;28;20392;-75
2021/04/13 07:14:22;;;;;;;;;;;;;;;7.71;93.02;102206.16;4957975;28;20086;-74
2021/04/13 07:16:56;;;;;;;11.43;3.38;;;;;;;7.86;91.74;102201.31;4969969;28;19961;-75
2021/04/13 07:19:25;;;;;;;8.63;3.42;;;;;;;7.91;91.71;102201.22;4958257;28;20038;-74
2021/04/13 07:22:01;;;;;;;5.75;3.47;;;;;;;8.10;90.51;102214.53;4964339;28;20055;-73
2021/04/13 07:25:05;;;;;;;11.02;3.40;;;;;;;8.11;89.38;102216.91;4969485;28;20031;-75
2021/04/13 07:27:45;;;;;;;7.43;3.28;;;;;;;8.07;89.59;102212.44;4950257;28;20047;-74
2021/04/13 07:30:18;;;;;;;10.65;3.05;;;;;;;8.35;89.19;102208.66;5021398;28;20042;-74
2021/04/13 07:32:44;;;;;;;13.63;3.30;;;;;;;8.63;89.04;102212.84;5023652;28;20112;-74
2021/04/13 07:35:20;;;;;;;7.75;2.65;;;;;;;8.75;87.35;102220.41;5025437;28;20075;-74
2021/04/13 07:37:48;;;;;;;8.63;2.53;;;;;;;8.96;86.95;102210.78;5027803;28;20059;-74
2021/04/13 07:40:31;;;;;;;10.30;2.38;;;;;;;9.33;84.01;102214.97;5030269;28;20068;-73
2021/04/13 07:43:24;;;;;;;8.75;2.17;;;;;;;9.43;83.20;102217.38;5011813;28;20125;-74
2021/04/13 07:46:21;;;;;;;7.18;2.22;;;;;;;9.75;83.05;102223.28;5027563;28;20060;-74
2021/04/13 07:49:00;;;;;;;7.97;2.22;;;;;;;9.88;80.50;102214.28;5027779;28;20542;-74
2021/04/13 07:51:41;;;;;;;6.78;1.80;;;;;;;9.88;81.03;102218.88;5022820;28;20045;-74
2021/04/13 07:54:35;;;;;;;7.82;1.63;;;;;;;10.01;79.09;102223.34;5032273;28;20486;-73
2021/04/13 07:57:17;;;;;;;7.88;1.70;;;;;;;9.84;78.24;102212.53;5015017;28;20118;-74
2021/04/13 08:00:00;;;;;;;4.38;1.42;;;;;;;10.01;79.66;102228.72;5017507;28;20490;-74
2021/04/13 08:02:26;;;;;;;5.55;1.65;;;;;;;10.39;79.16;102229.84;5027175;28;20038;-74
2021/04/13 08:04:51;;;;;;;8.15;1.55;;;;;;;10.34;77.04;102229.16;5030255;28;20036;-74
2021/04/13 08:07:22;;;;;;;6.43;1.65;;;;;;;10.30;77.04;102230.94;5026227;28;20041;-74
2021/04/13 08:10:04;;;;;;;6.75;1.38;;;;;;;10.22;75.82;102242.47;5031098;28;20030;-74
2021/04/13 08:12:48;;;;;;;8.80;1.83;;;;;;;10.35;76.84;102245.03;5030345;28;20025;-74
2021/04/13 08:15:17;;;;;;;6.32;1.52;;;;;;;10.17;76.98;102239.91;5021493;28;20520;-74
2021/04/13 08:17:58;;;;;;;6.07;1.83;;;;;;;10.10;77.05;102239.56;5022890;28;20437;-74
2021/04/13 08:20:34;;;;;;;6.32;1.80;;;;;;;10.00;76.80;102240.63;5039444;28;20486;-74
2021/04/13 08:23:06;;;;;;;10.40;1.67;;;;;;;9.96;77.50;102232.38;5017979;28;20088;-74
2021/04/13 08:25:34;;;;;;;6.25;1.88;;;;;;;10.06;77.22;102238.56;5028101;28;20052;-74
2021/04/13 08:28:15;;;;;;;7.25;1.60;;;;;;;10.28;77.18;102244.69;5021445;28;20544;-75
2021/04/13 08:32:49;;;;;;;;;;;;;;;10.44;74.87;102236.94;5031969;28;20037;-74
2021/04/13 08:34:18;;;;;;;9.00;1.45;;;;;;;10.38;75.92;102232.81;5032152;28;20295;-74
2021/04/13 08:36:52;;;;;;;7.55;2.13;;;;;;;10.25;74.45;102239.13;5027368;28;20036;-74
2021/04/13 08:39:47;;;;;;;12.55;2.35;;;;;;;10.04;76.66;102230.81;5028302;28;20498;-74
2021/04/13 08:42:32;;;;;;;8.07;1.98;;;;;;;10.29;76.46;102226.63;5000094;28;20037;-74
2021/04/13 08:44:58;;;;;;;10.35;2.35;;;;;;;10.54;74.93;102240.16;5029581;28;20049;-74
2021/04/13 08:47:36;;;;;;;9.50;2.17;;;;;;;10.96;74.58;102245.84;5029718;28;20022;-75
2021/04/13 08:50:40;;;;;;;7.47;2.20;;;;;;;11.31;71.35;102242.03;5023266;28;20120;-74
2021/04/13 08:53:30;;;;;;;10.65;2.50;;;;;;;11.39;71.17;102244.72;5012443;28;20041;-73
2021/04/13 08:56:20;;;;;;;16.30;2.22;;;;;;;11.37;70.57;102238.06;5024452;28;20030;-74
2021/04/13 08:58:53;;;;;;;10.60;2.03;;;;;;;11.34;69.81;102241.41;5021031;28;20033;-74
2021/04/13 09:01:31;;;;;;;12.48;2.10;;;;;;;11.40;70.48;102243.59;5027539;28;20033;-74
2021/04/13 09:03:58;;;;;;;11.32;2.67;;;;;;;11.55;70.52;102236.91;5020822;28;20054;-74
2021/04/13 09:06:42;;;;;;;12.13;2.85;;;;;;;11.70;70.50;102239.09;5020479;28;20414;-73
2021/04/13 09:09:15;;;;;;;12.32;2.80;;;;;;;11.74;68.88;102237.34;5027934;28;20056;-74
2021/04/13 09:11:57;;;;;;;9.20;2.30;;;;;;;12.14;67.96;102241.28;5025351;28;20430;-74
2021/04/13 09:14:36;;;;;;;13.65;3.10;;;;;;;12.50;65.19;102236.16;5022052;28;20072;-73
2021/04/13 09:17:07;;;;;;;14.07;2.97;;;;;;;12.61;63.09;102245.47;5023313;28;20394;-74
2021/04/13 09:19:53;;;;;;;11.88;2.05;;;;;;;12.86;64.69;102232.06;5031093;28;20038;-75
2021/04/13 09:22:35;;;;;;;5.88;1.83;;;;;;;12.80;63.05;102239.59;5023164;28;20038;-75
2021/04/13 09:25:13;;;;;;;13.52;2.50;;;;;;;12.63;61.90;102229.72;5024416;28;20045;-74
2021/04/13 09:27:49;;;;;;;14.25;2.35;;;;;;;12.14;62.53;102224.28;5042422;28;20378;-74
2021/04/13 09:30:17;;;;;;;8.43;2.17;;;;;;;12.21;66.97;102227.28;5027832;28;20059;-76
2021/04/13 09:32:44;;;;;;;7.30;1.80;;;;;;;12.45;63.10;102214.72;5027480;28;20490;-74
2021/04/13 09:35:31;;;;;;;13.77;2.00;;;;;;;12.35;63.57;102211.63;5026327;28;20501;-74
2021/04/13 09:38:18;;;;;;;6.80;2.03;;;;;;;12.40;64.29;102217.63;5029724;28;20104;-75
2021/04/13 09:41:14;;;;;;;11.18;2.55;;;;;;;12.72;61.90;102205.31;5019563;28;20025;-74
2021/04/13 09:43:52;;;;;;;9.27;2.05;;;;;;;12.52;59.32;102206.13;5022249;28;20116;-76
2021/04/13 09:46:54;;;;;;;7.75;1.92;;;;;;;12.50;58.86;102208.34;5022263;28;20476;-74
2021/04/13 09:49:39;;;;;;;8.77;1.67;;;;;;;12.57;57.88;102203.19;5017158;28;20048;-75
2021/04/13 09:52:26;;;;;;;9.60;1.83;;;;;;;12.56;58.51;102197.00;5026054;28;20036;-73
2021/04/13 09:55:24;;;;;;;9.48;2.17;;;;;;;12.40;59.12;102203.34;5022730;28;20405;-76
2021/04/13 09:58:08;;;;;;;10.45;1.83;;;;;;;12.08;59.99;102210.19;5012608;28;20040;-73
2021/04/13 10:00:57;;;;;;;11.55;1.90;;;;;;;12.17;62.02;102207.44;5012106;28;20490;-73
2021/04/13 10:03:54;;;;;;;9.02;2.20;;;;;;;12.70;60.66;102194.81;5015974;28;20037;-73
2021/04/13 10:06:49;;;;;;;11.23;1.80;;;;;;;13.24;58.45;102192.16;4992578;28;20492;-75
2021/04/13 10:09:25;;;;;;;11.07;2.05;;;;;;;13.72;57.48;102183.31;5001334;28;20156;-75
2021/04/13 10:12:01;;;;;;;10.95;1.88;;;;;;;14.22;56.19;102176.41;5012250;28;20149;-75
2021/04/13 10:14:37;;;;;;;7.40;1.48;;;;;;;14.59;49.16;102171.69;5013209;28;20034;-75
2021/04/13 10:17:30;;;;;;;5.35;1.33;;;;;;;15.18;46.12;102164.41;5028241;28;20037;-73
2021/04/13 10:20:10;;;;;;;6.43;1.00;;;;;;;15.39;44.16;102162.22;5024079;28;20120;-73
2021/04/13 10:23:00;;;;;;;7.57;1.40;;;;;;;15.13;43.79;102166.59;5027202;28;20513;-73
2021/04/13 10:25:38;;;;;;;7.45;1.50;;;;;;;14.99;43.26;102171.63;5025685;28;20080;-73
2021/04/13 10:28:36;;;;;;;5.30;1.30;;;;;;;14.78;45.65;102171.84;5019885;28;20057;-73
2021/04/13 10:31:39;;;;;;;7.45;1.23;;;;;;;14.98;45.43;102172.78;5008995;28;20042;-74
2021/04/13 10:34:28;;;;;;;4.28;1.23;;;;;;;15.16;45.35;102176.75;5024467;28;20034;-74
2021/04/13 10:37:22;;;;;;;7.93;1.45;;;;;;;15.08;44.52;102185.81;5026765;28;20075;-75
2021/04/13 10:40:06;;;;;;;3.05;1.00;;;;;;;14.83;41.85;102181.66;5027999;28;20105;-73
2021/04/13 10:42:53;;;;;;;5.55;1.10;;;;;;;14.27;41.54;102187.00;5027700;28;20041;-73
2021/04/13 10:45:42;;;;;;;4.60;1.00;;;;;;;13.97;43.30;102174.03;5027530;28;20033;-73
2021/04/13 10:48:51;;;;;;;5.70;1.27;;;;;;;14.63;42.88;102171.78;5021459;28;20144;-74
2021/04/13 10:51:25;;;;;;;7.50;1.02;;;;;;;14.98;43.72;102170.06;5028843;28;20552;-73
2021/04/13 10:54:10;;;;;;;4.15;1.17;;;;;;;15.36;42.92;102176.53;5029852;28;20034;-73
2021/04/13 10:56:38;;;;;;;8.20;1.33;;;;;;;15.32;43.20;102174.84;5030565;28;20047;-72
2021/04/13 10:59:36;;;;;;;7.43;1.42;;;;;;;15.29;44.94;102176.31;5024252;28;20073;-74
2021/04/13 11:02:43;;;;;;;7.65;1.20;;;;;;;15.00;45.65;102181.38;5033036;28;20030;-74
2021/04/13 11:05:08;;;;;;;7.88;1.63;;;;;;;14.73;45.84;102180.22;5008715;28;20483;-74
2021/04/13 11:07:55;;;;;;;7.43;1.67;;;;;;;14.51;45.20;102188.09;5026377;28;20037;-74
2021/04/13 11:10:57;;;;;;;6.18;1.45;;;;;;;14.32;45.43;102173.22;5030347;28;20045;-73
2021/04/13 11:13:40;;;;;;;6.90;1.67;;;;;;;14.59;45.78;102177.13;5025549;28;20034;-74
2021/04/13 11:16:24;;;;;;;7.55;1.65;;;;;;;15.10;44.32;102175.41;5030757;28;20108;-74
2021/04/13 11:19:07;;;;;;;6.18;1.20;;;;;;;15.42;43.89;102173.56;5020894;28;20474;-74
2021/04/13 11:21:54;;;;;;;8.32;1.35;;;;;;;16.06;43.00;102172.03;5024140;28;20611;-74
2021/04/13 11:24:34;;;;;;;6.45;0.93;;;;;;;16.42;42.50;102161.91;5020081;28;20041;-75
2021/04/13 11:27:00;;;;;;;5.90;1.13;;;;;;;16.61;41.94;102165.44;5024630;28;20494;-74
2021/04/13 11:29:53;;;;;;;7.05;1.30;;;;;;;16.48;41.92;102161.31;5028628;28;20028;-74
2021/04/13 11:32:46;;;;;;;6.60;1.27;;;;;;;16.31;41.16;102167.13;5032335;28;20537;-75
2021/04/13 11:35:35;;;;;;;12.18;1.17;;;;;;;15.74;41.21;102170.50;5025267;28;20039;-75
2021/04/13 11:38:24;;;;;;;5.80;1.13;;;;;;;15.20;42.75;102164.06;5024496;28;20035;-75
2021/04/13 11:41:08;;;;;;;5.28;1.00;;;;;;;14.67;42.12;102168.06;5028797;28;20501;-74
2021/04/13 11:44:18;;;;;;;6.22;1.20;;;;;;;14.44;42.77;102167.78;5027263;28;20040;-74
2021/04/13 11:46:47;;;;;;;4.90;1.10;;;;;;;14.91;42.31;102164.44;4975733;28;20046;-74
2021/04/13 11:49:33;;;;;;;3.67;0.70;;;;;;;15.50;39.69;102165.25;5031510;28;20144;-74
2021/04/13 11:52:04;;;;;;;6.57;1.08;;;;;;;15.84;38.46;102166.44;5021604;28;20111;-74
2021/04/13 11:54:45;;;;;;;;;;;;;;;15.94;37.17;102166.69;5033401;28;20029;-75
2021/04/13 11:57:19;;;;;;;3.45;0.70;;;;;;;16.35;37.66;102154.41;5028566;28;19994;-75
2021/04/13 12:00:10;;;;;;;5.50;0.82;;;;;;;16.47;37.83;102159.72;5033013;28;20044;-74
2021/04/13 12:02:41;;;;;;;4.88;0.95;;;;;;;16.20;38.92;102156.00;5025120;28;20060;-75
2021/04/13 12:05:28;;;;;;;9.00;1.23;;;;;;;16.28;39.63;102155.03;5032344;28;20041;-74
2021/04/13 12:07:54;;;;;;;7.55;1.00;;;;;;;16.40;39.72;102165.00;5025048;28;20037;-74
2021/04/13 12:10:32;;;;;;;5.97;0.73;;;;;;;16.47;36.14;102165.16;5032495;28;20393;-75
2021/04/13 12:13:05;;;;;;;6.45;0.90;;;;;;;16.79;37.25;102163.09;5030356;28;20033;-74
2021/04/13 12:15:30;;;;;;;2.53;0.55;;;;;;;16.66;36.26;102157.03;5030905;28;20044;-74
2021/04/13 12:18:20;;;;;;;3.63;0.65;;;;;;;16.79;35.79;102160.38;5031818;28;20037;-75
2021/04/13 12:20:45;;;;;;;5.95;0.93;;;;;;;17.23;36.77;102147.97;5024966;28;20038;-75
2021/04/13 12:23:11;;;;;;;5.97;0.80;;;;;;;17.31;36.55;102165.19;5028393;28;20045;-75